createdAt,value
2022-08-20T00:00:50.261Z,9.20
2022-08-20T00:02:06.876Z,11.10
2022-08-20T00:03:20.681Z,14.30
2022-08-20T00:04:32.180Z,9.60
2022-08-20T00:05:43.581Z,14.50
2022-08-20T00:06:53.440Z,10.60
2022-08-20T00:08:05.269Z,10.10
2022-08-20T00:09:12.493Z,13.20
2022-08-20T00:10:20.334Z,12.50
2022-08-20T00:11:29.184Z,10.80
2022-08-20T00:12:40.629Z,11.10
2022-08-20T00:13:53.978Z,12.40
2022-08-20T00:15:05.584Z,10.00
2022-08-20T00:16:15.513Z,8.80
2022-08-20T00:17:25.791Z,10.40
2022-08-20T00:18:38.424Z,7.50
2022-08-20T00:19:49.242Z,10.10
2022-08-20T00:20:59.714Z,10.60
2022-08-20T00:22:07.948Z,9.10
2022-08-20T00:23:16.999Z,10.90
2022-08-20T00:24:25.155Z,11.50
2022-08-20T00:25:33.644Z,9.20
2022-08-20T00:26:51.904Z,7.90
2022-08-20T00:28:05.966Z,10.50
2022-08-20T00:29:13.289Z,14.60
2022-08-20T00:30:26.280Z,8.50
2022-08-20T00:31:34.147Z,13.10
2022-08-20T00:32:59.632Z,8.80
2022-08-20T00:34:08.265Z,8.30
2022-08-20T00:35:17.851Z,10.00
2022-08-20T00:36:32.244Z,10.60
2022-08-20T00:37:42.927Z,11.00
2022-08-20T00:38:52.645Z,11.40
2022-08-20T00:40:02.709Z,10.30
2022-08-20T00:41:18.712Z,7.70
2022-08-20T00:42:27.631Z,9.10
2022-08-20T00:44:06.288Z,9.30
2022-08-20T00:45:13.841Z,8.20
2022-08-20T00:46:27.937Z,11.20
2022-08-20T00:47:51.174Z,12.80
2022-08-20T00:49:01.805Z,11.30
2022-08-20T00:50:14.135Z,9.70
2022-08-20T00:51:43.952Z,7.00
2022-08-20T00:52:54.157Z,7.30
2022-08-20T00:54:18.261Z,11.00
2022-08-20T00:55:29.728Z,10.60
2022-08-20T00:56:40.145Z,12.10
2022-08-20T00:58:00.692Z,10.00
2022-08-20T00:59:13.723Z,10.00
2022-08-20T01:00:26.815Z,9.20
2022-08-20T01:01:55.915Z,12.10
2022-08-20T01:03:10.969Z,10.70
2022-08-20T01:04:19.823Z,10.40
2022-08-20T01:05:30.352Z,9.20
2022-08-20T01:06:42.206Z,12.20
2022-08-20T01:07:56.069Z,11.20
2022-08-20T01:09:06.585Z,8.20
2022-08-20T01:10:14.982Z,9.50
2022-08-20T01:11:36.917Z,10.20
2022-08-20T01:12:58.947Z,8.20
2022-08-20T01:14:35.642Z,13.40
2022-08-20T01:15:46.220Z,17.70
2022-08-20T01:17:00.935Z,14.70
2022-08-20T01:18:08.633Z,9.60
2022-08-20T01:19:29.802Z,9.00
2022-08-20T01:20:43.663Z,9.10
2022-08-20T01:21:53.579Z,12.30
2022-08-20T01:23:29.928Z,13.40
2022-08-20T01:24:41.519Z,7.40
2022-08-20T01:25:55.132Z,9.90
2022-08-20T01:27:09.086Z,11.50
2022-08-20T01:28:18.507Z,8.20
2022-08-20T01:29:28.941Z,9.20
2022-08-20T01:30:39.786Z,12.00
2022-08-20T01:31:47.707Z,12.60
2022-08-20T01:32:56.443Z,10.00
2022-08-20T01:34:06.523Z,10.00
2022-08-20T01:35:14.012Z,11.10
2022-08-20T01:36:26.111Z,9.40
2022-08-20T01:37:35.992Z,9.90
2022-08-20T01:38:53.193Z,7.90
2022-08-20T01:40:09.199Z,12.00
2022-08-20T01:41:31.945Z,8.80
2022-08-20T01:42:53.995Z,8.50
2022-08-20T01:44:13.863Z,11.60
2022-08-20T01:45:31.478Z,11.30
2022-08-20T01:46:43.629Z,10.50
2022-08-20T01:47:53.686Z,11.30
2022-08-20T01:49:21.059Z,10.80
2022-08-20T01:50:36.300Z,7.80
2022-08-20T01:51:45.972Z,14.30
2022-08-20T01:53:06.436Z,14.60
2022-08-20T01:54:15.467Z,10.30
2022-08-20T01:57:22.043Z,7.30
2022-08-20T01:58:31.287Z,7.60
2022-08-20T01:59:41.205Z,10.50
2022-08-20T02:00:51.103Z,7.70
2022-08-20T02:02:04.709Z,8.70
2022-08-20T02:04:50.548Z,8.00
2022-08-20T02:06:03.651Z,10.00
2022-08-20T02:07:17.129Z,11.90
2022-08-20T02:08:29.679Z,8.70
2022-08-20T02:09:41.621Z,9.90
2022-08-20T02:10:50.384Z,9.60
2022-08-20T02:12:00.786Z,10.70
2022-08-20T02:13:11.778Z,10.00
2022-08-20T02:14:22.803Z,8.40
2022-08-20T02:15:37.091Z,10.10
2022-08-20T02:16:54.698Z,10.70
2022-08-20T02:18:11.944Z,8.50
2022-08-20T02:21:06.488Z,7.50
2022-08-20T02:22:20.515Z,9.40
2022-08-20T02:23:29.466Z,8.00
2022-08-20T02:24:37.605Z,12.50
2022-08-20T02:25:48.634Z,9.50
2022-08-20T02:26:57.590Z,10.50
2022-08-20T02:28:10.826Z,14.50
2022-08-20T02:29:18.784Z,13.40
2022-08-20T02:30:36.534Z,9.90
2022-08-20T02:32:24.375Z,14.20
2022-08-20T02:33:19.399Z,13.90
2022-08-20T02:34:27.451Z,15.40
2022-08-20T02:35:37.253Z,14.80
2022-08-20T02:36:47.773Z,22.20
2022-08-20T02:37:56.270Z,14.20
2022-08-20T02:39:08.166Z,13.70
2022-08-20T02:40:18.973Z,10.00
2022-08-20T02:41:42.751Z,8.10
2022-08-20T02:42:51.706Z,9.60
2022-08-20T02:44:01.115Z,11.70
2022-08-20T02:45:09.778Z,13.80
2022-08-20T02:46:25.055Z,11.80
2022-08-20T02:47:36.846Z,13.10
2022-08-20T02:48:46.281Z,12.40
2022-08-20T02:49:56.360Z,8.70
2022-08-20T02:51:07.092Z,10.50
2022-08-20T02:52:14.879Z,6.40
2022-08-20T02:53:42.333Z,12.00
2022-08-20T02:54:59.398Z,9.90
2022-08-20T02:56:12.943Z,13.60
2022-08-20T02:57:32.040Z,14.50
2022-08-20T02:58:58.354Z,18.50
2022-08-20T03:00:22.047Z,10.60
2022-08-20T03:01:33.486Z,14.30
2022-08-20T03:02:43.014Z,12.80
2022-08-20T03:03:52.454Z,11.10
2022-08-20T03:05:03.993Z,14.00
2022-08-20T03:06:13.053Z,13.30
2022-08-20T03:07:21.538Z,6.90
2022-08-20T03:08:30.892Z,14.00
2022-08-20T03:09:39.721Z,11.60
2022-08-20T03:10:49.479Z,9.40
2022-08-20T03:11:59.254Z,13.20
2022-08-20T03:13:12.589Z,14.40
2022-08-20T03:14:19.710Z,13.40
2022-08-20T03:15:28.557Z,12.00
2022-08-20T03:16:38.605Z,14.40
2022-08-20T03:17:48.833Z,13.70
2022-08-20T03:18:59.726Z,13.50
2022-08-20T03:20:09.851Z,9.90
2022-08-20T03:21:20.546Z,15.30
2022-08-20T03:22:28.766Z,11.30
2022-08-20T03:23:40.346Z,12.40
2022-08-20T03:24:54.017Z,10.00
2022-08-20T03:26:13.941Z,11.10
2022-08-20T03:27:35.506Z,11.90
2022-08-20T03:28:46.267Z,13.10
2022-08-20T03:30:02.944Z,10.00
2022-08-20T03:31:17.049Z,9.30
2022-08-20T03:32:25.905Z,9.60
2022-08-20T03:33:35.121Z,14.40
2022-08-20T03:34:42.400Z,12.10
2022-08-20T03:35:51.325Z,11.70
2022-08-20T03:37:02.202Z,12.40
2022-08-20T03:38:13.269Z,10.60
2022-08-20T03:39:21.529Z,13.40
2022-08-20T03:40:38.508Z,13.80
2022-08-20T03:41:50.528Z,13.30
2022-08-20T03:43:02.388Z,7.50
2022-08-20T03:44:11.503Z,9.40
2022-08-20T03:45:21.545Z,8.90
2022-08-20T03:46:29.906Z,16.60
2022-08-20T03:47:39.598Z,12.30
2022-08-20T03:48:48.715Z,11.60
2022-08-20T03:50:06.742Z,7.70
2022-08-20T03:51:18.927Z,10.60
2022-08-20T03:52:28.072Z,11.80
2022-08-20T03:53:37.695Z,12.40
2022-08-20T03:54:48.027Z,9.20
2022-08-20T03:56:01.758Z,10.00
2022-08-20T03:57:17.660Z,13.10
2022-08-20T03:58:34.921Z,13.90
2022-08-20T03:59:46.345Z,14.50
2022-08-20T04:00:59.334Z,11.60
2022-08-20T04:02:10.781Z,13.20
2022-08-20T04:03:18.684Z,13.30
2022-08-20T04:04:27.243Z,11.20
2022-08-20T04:05:38.622Z,19.10
2022-08-20T04:06:48.996Z,12.60
2022-08-20T04:08:02.954Z,12.60
2022-08-20T04:09:12.730Z,11.40
2022-08-20T04:10:19.747Z,10.90
2022-08-20T04:11:27.692Z,14.40
2022-08-20T04:12:36.279Z,10.50
2022-08-20T04:13:50.164Z,13.60
2022-08-20T04:15:02.845Z,12.20
2022-08-20T04:16:14.785Z,12.80
2022-08-20T04:17:25.860Z,8.60
2022-08-20T04:19:46.198Z,14.50
2022-08-20T04:20:55.629Z,12.30
2022-08-20T04:22:04.561Z,11.50
2022-08-20T04:23:23.622Z,12.40
2022-08-20T04:25:08.939Z,11.90
2022-08-20T04:26:47.218Z,12.80
2022-08-20T04:27:57.721Z,12.70
2022-08-20T04:29:07.411Z,11.30
2022-08-20T04:30:51.727Z,13.10
2022-08-20T04:32:05.609Z,13.10
2022-08-20T04:33:19.238Z,9.80
2022-08-20T04:34:43.285Z,11.90
2022-08-20T04:36:04.910Z,18.50
2022-08-20T04:37:16.979Z,11.30
2022-08-20T04:40:51.771Z,17.80
2022-08-20T04:42:05.818Z,12.60
2022-08-20T04:43:16.388Z,15.10
2022-08-20T04:45:35.347Z,17.20
2022-08-20T04:46:50.874Z,12.50
2022-08-20T04:48:11.726Z,17.90
2022-08-20T04:49:28.957Z,15.10
2022-08-20T04:50:48.954Z,17.90
2022-08-20T04:52:02.895Z,10.80
2022-08-20T04:53:25.765Z,15.20
2022-08-20T04:54:36.189Z,12.90
2022-08-20T04:55:49.048Z,12.00
2022-08-20T04:56:58.920Z,17.60
2022-08-20T04:58:14.959Z,15.90
2022-08-20T04:59:24.356Z,15.20
2022-08-20T05:00:33.427Z,13.00
2022-08-20T05:03:00.806Z,16.60
2022-08-20T05:04:12.604Z,14.80
2022-08-20T05:07:32.484Z,14.50
2022-08-20T05:08:47.489Z,12.10
2022-08-20T05:10:00.436Z,14.40
2022-08-20T05:11:34.410Z,10.90
2022-08-20T05:12:56.857Z,14.50
2022-08-20T05:15:19.836Z,11.50
2022-08-20T05:16:29.901Z,11.80
2022-08-20T05:17:41.919Z,14.90
2022-08-20T05:18:52.474Z,16.40
2022-08-20T05:20:06.231Z,17.80
2022-08-20T05:21:20.054Z,14.70
2022-08-20T05:22:31.100Z,16.20
2022-08-20T05:23:44.504Z,15.00
2022-08-20T05:24:53.689Z,13.90
2022-08-20T05:26:05.062Z,14.00
2022-08-20T05:27:24.643Z,14.90
2022-08-20T05:28:49.972Z,13.50
2022-08-20T05:30:13.472Z,16.10
2022-08-20T05:31:35.063Z,10.50
2022-08-20T05:32:44.860Z,12.40
2022-08-20T05:33:53.219Z,13.70
2022-08-20T05:35:02.892Z,12.50
2022-08-20T05:37:24.217Z,14.50
2022-08-20T05:38:38.323Z,31.50
2022-08-20T05:39:50.251Z,14.60
2022-08-20T05:41:04.354Z,14.10
2022-08-20T05:42:16.156Z,13.90
2022-08-20T05:43:25.963Z,11.50
2022-08-20T05:44:34.208Z,12.50
2022-08-20T05:45:47.857Z,13.10
2022-08-20T05:46:58.299Z,12.50
2022-08-20T05:48:19.881Z,9.10
2022-08-20T05:49:29.667Z,13.50
2022-08-20T05:50:40.770Z,14.00
2022-08-20T05:51:52.560Z,12.60
2022-08-20T05:53:03.236Z,14.10
2022-08-20T05:54:11.242Z,15.80
2022-08-20T05:55:18.541Z,15.70
2022-08-20T05:56:26.840Z,10.90
2022-08-20T05:57:34.501Z,16.10
2022-08-20T05:58:43.423Z,15.70
2022-08-20T05:59:50.592Z,13.00
2022-08-20T06:01:00.087Z,13.50
2022-08-20T06:02:29.785Z,15.40
2022-08-20T06:04:00.122Z,14.10
2022-08-20T06:05:09.601Z,12.50
2022-08-20T06:06:39.010Z,15.60
2022-08-20T06:07:48.289Z,11.60
2022-08-20T06:08:58.739Z,13.00
2022-08-20T06:10:12.071Z,14.60
2022-08-20T06:11:20.350Z,12.90
2022-08-20T06:12:28.226Z,14.30
2022-08-20T06:13:36.693Z,13.80
2022-08-20T06:14:46.677Z,14.00
2022-08-20T06:17:13.457Z,14.80
2022-08-20T06:18:27.753Z,13.40
2022-08-20T06:19:38.403Z,13.10
2022-08-20T06:20:48.181Z,16.10
2022-08-20T06:21:58.376Z,14.20
2022-08-20T06:23:07.998Z,15.30
2022-08-20T06:24:16.285Z,13.50
2022-08-20T06:25:25.975Z,14.00
2022-08-20T06:26:36.629Z,13.70
2022-08-20T06:27:46.210Z,15.30
2022-08-20T06:28:56.414Z,14.70
2022-08-20T06:30:06.405Z,14.10
2022-08-20T06:31:17.471Z,15.00
2022-08-20T06:32:32.070Z,16.50
2022-08-20T06:33:42.023Z,13.80
2022-08-20T06:34:53.354Z,17.30
2022-08-20T06:36:02.770Z,16.20
2022-08-20T06:37:17.707Z,15.20
2022-08-20T06:38:26.891Z,19.40
2022-08-20T06:39:36.406Z,14.30
2022-08-20T06:40:45.611Z,11.80
2022-08-20T06:41:55.140Z,12.20
2022-08-20T06:43:05.537Z,16.80
2022-08-20T06:44:15.499Z,11.80
2022-08-20T06:45:26.708Z,13.30
2022-08-20T06:46:40.463Z,16.00
2022-08-20T06:47:51.478Z,16.20
2022-08-20T06:49:02.548Z,17.50
2022-08-20T06:50:14.374Z,12.20
2022-08-20T06:51:23.491Z,16.50
2022-08-20T06:52:51.679Z,17.60
2022-08-20T06:54:03.463Z,12.90
2022-08-20T06:55:14.518Z,12.60
2022-08-20T06:56:22.129Z,19.20
2022-08-20T06:57:29.875Z,14.90
2022-08-20T06:58:39.205Z,16.50
2022-08-20T06:59:54.408Z,18.00
2022-08-20T07:01:10.383Z,14.00
2022-08-20T07:02:19.049Z,13.90
2022-08-20T07:03:27.974Z,13.00
2022-08-20T07:04:38.791Z,13.00
2022-08-20T07:05:47.661Z,17.50
2022-08-20T07:06:55.466Z,18.80
2022-08-20T07:08:02.387Z,14.10
2022-08-20T07:09:10.807Z,18.70
2022-08-20T07:10:18.317Z,12.00
2022-08-20T07:11:28.897Z,12.90
2022-08-20T07:12:37.800Z,15.50
2022-08-20T07:13:46.699Z,15.00
2022-08-20T07:14:54.041Z,15.80
2022-08-20T07:16:02.859Z,15.00
2022-08-20T07:17:12.224Z,13.20
2022-08-20T07:18:28.874Z,18.40
2022-08-20T07:19:37.743Z,14.80
2022-08-20T07:20:46.047Z,18.80
2022-08-20T07:21:53.149Z,14.60
2022-08-20T07:23:00.828Z,14.40
2022-08-20T07:24:09.188Z,14.80
2022-08-20T07:25:18.428Z,15.60
2022-08-20T07:26:26.001Z,19.30
2022-08-20T07:27:33.404Z,18.30
2022-08-20T07:28:41.971Z,18.60
2022-08-20T07:30:12.530Z,15.10
2022-08-20T07:31:38.286Z,18.10
2022-08-20T07:32:50.147Z,13.00
2022-08-20T07:33:57.485Z,17.40
2022-08-20T07:35:09.686Z,12.10
2022-08-20T07:36:16.642Z,17.50
2022-08-20T07:37:25.041Z,19.40
2022-08-20T07:38:32.263Z,18.40
2022-08-20T07:39:42.459Z,16.10
2022-08-20T07:40:50.106Z,20.60
2022-08-20T07:42:04.429Z,17.30
2022-08-20T07:43:12.105Z,19.00
2022-08-20T07:44:22.760Z,15.70
2022-08-20T07:45:40.264Z,18.50
2022-08-20T07:46:56.646Z,22.90
2022-08-20T07:48:11.046Z,16.20
2022-08-20T07:49:19.497Z,16.70
2022-08-20T07:50:29.432Z,17.20
2022-08-20T07:51:38.064Z,18.10
2022-08-20T07:52:46.973Z,17.60
2022-08-20T07:53:59.399Z,14.90
2022-08-20T07:55:08.053Z,16.70
2022-08-20T07:56:18.074Z,17.90
2022-08-20T07:57:25.397Z,17.90
2022-08-20T07:58:33.499Z,18.00
2022-08-20T07:59:42.463Z,16.00
2022-08-20T08:00:51.156Z,17.40
2022-08-20T08:03:11.828Z,15.80
2022-08-20T08:04:19.217Z,18.80
2022-08-20T08:05:27.628Z,14.40
2022-08-20T08:06:37.832Z,20.00
2022-08-20T08:07:44.968Z,18.50
2022-08-20T08:08:52.621Z,15.10
2022-08-20T08:10:00.192Z,17.80
2022-08-20T08:11:09.945Z,21.80
2022-08-20T08:12:19.103Z,16.30
2022-08-20T08:13:28.728Z,13.60
2022-08-20T08:14:36.287Z,17.00
2022-08-20T08:15:46.179Z,17.80
2022-08-20T08:16:54.672Z,15.90
2022-08-20T08:18:09.132Z,18.40
2022-08-20T08:19:16.676Z,18.10
2022-08-20T08:20:24.768Z,18.20
2022-08-20T08:21:34.183Z,18.20
2022-08-20T08:23:54.857Z,23.30
2022-08-20T08:25:05.872Z,19.20
2022-08-20T08:26:16.187Z,17.70
2022-08-20T08:27:29.027Z,15.20
2022-08-20T08:28:38.262Z,17.40
2022-08-20T08:29:45.597Z,15.80
2022-08-20T08:30:53.133Z,20.30
2022-08-20T08:32:04.000Z,20.20
2022-08-20T08:33:32.515Z,19.70
2022-08-20T08:34:40.514Z,17.10
2022-08-20T08:35:48.110Z,19.00
2022-08-20T08:36:57.102Z,15.20
2022-08-20T08:38:04.578Z,19.40
2022-08-20T08:39:14.820Z,20.70
2022-08-20T08:40:24.901Z,16.70
2022-08-20T08:41:37.459Z,20.40
2022-08-20T08:42:59.613Z,17.70
2022-08-20T08:44:27.017Z,17.30
2022-08-20T08:45:40.590Z,18.50
2022-08-20T08:46:51.860Z,18.10
2022-08-20T08:48:01.294Z,20.60
2022-08-20T08:49:14.705Z,17.70
2022-08-20T08:50:50.197Z,17.70
2022-08-20T08:52:06.750Z,25.70
2022-08-20T08:53:28.779Z,17.50
2022-08-20T08:54:37.756Z,19.30
2022-08-20T08:55:47.292Z,16.70
2022-08-20T08:56:56.931Z,17.70
2022-08-20T08:58:16.475Z,16.20
2022-08-20T08:59:48.501Z,15.50
2022-08-20T09:01:02.085Z,15.70
2022-08-20T09:02:20.310Z,17.70
2022-08-20T09:03:30.534Z,14.70
2022-08-20T09:04:40.334Z,16.30
2022-08-20T09:06:01.365Z,15.70
2022-08-20T09:07:13.319Z,18.60
2022-08-20T09:08:25.617Z,14.70
2022-08-20T09:09:38.498Z,18.00
2022-08-20T09:10:47.309Z,17.50
2022-08-20T09:11:57.195Z,15.60
2022-08-20T09:13:05.561Z,20.10
2022-08-20T09:14:13.123Z,17.80
2022-08-20T09:15:20.892Z,15.20
2022-08-20T09:16:28.884Z,16.20
2022-08-20T09:17:54.555Z,15.90
2022-08-20T09:19:06.115Z,16.90
2022-08-20T09:20:13.700Z,20.70
2022-08-20T09:21:20.855Z,17.20
2022-08-20T09:22:28.281Z,13.80
2022-08-20T09:23:38.875Z,14.80
2022-08-20T09:24:46.062Z,16.70
2022-08-20T09:25:53.192Z,18.50
2022-08-20T09:27:00.829Z,18.60
2022-08-20T09:28:10.886Z,15.60
2022-08-20T09:29:21.162Z,19.00
2022-08-20T09:30:31.408Z,18.10
2022-08-20T09:31:40.957Z,16.70
2022-08-20T09:32:48.316Z,19.30
2022-08-20T09:33:59.312Z,17.90
2022-08-20T09:35:09.538Z,16.20
2022-08-20T09:36:25.613Z,18.00
2022-08-20T09:37:42.658Z,17.30
2022-08-20T09:38:53.228Z,22.00
2022-08-20T09:40:02.868Z,20.30
2022-08-20T09:41:12.093Z,14.10
2022-08-20T09:42:24.925Z,19.10
2022-08-20T09:43:35.069Z,20.20
2022-08-20T09:44:42.863Z,17.80
2022-08-20T09:45:49.948Z,18.30
2022-08-20T09:47:00.507Z,17.90
2022-08-20T09:48:10.486Z,14.80
2022-08-20T09:49:21.150Z,19.90
2022-08-20T09:50:32.422Z,21.10
2022-08-20T09:51:40.011Z,18.00
2022-08-20T09:52:50.605Z,17.40
2022-08-20T09:54:00.219Z,21.90
2022-08-20T09:55:16.078Z,18.70
2022-08-20T09:56:23.357Z,20.40
2022-08-20T09:57:30.636Z,22.30
2022-08-20T09:58:52.327Z,21.10
2022-08-20T10:00:03.159Z,15.50
2022-08-20T10:01:22.670Z,18.90
2022-08-20T10:02:29.946Z,18.40
2022-08-20T10:03:39.740Z,24.80
2022-08-20T10:04:53.629Z,16.00
2022-08-20T10:06:04.005Z,17.50
2022-08-20T10:07:13.686Z,22.10
2022-08-20T10:08:23.555Z,19.30
2022-08-20T10:09:32.404Z,19.40
2022-08-20T10:10:41.239Z,19.60
2022-08-20T10:11:48.778Z,18.20
2022-08-20T10:12:56.598Z,16.00
2022-08-20T10:14:06.682Z,19.50
2022-08-20T10:15:14.252Z,19.20
2022-08-20T10:16:21.529Z,18.20
2022-08-20T10:17:30.389Z,18.10
2022-08-20T10:18:37.971Z,12.70
2022-08-20T10:19:46.203Z,15.10
2022-08-20T10:20:53.715Z,18.90
2022-08-20T10:22:01.512Z,14.70
2022-08-20T10:23:12.103Z,17.70
2022-08-20T10:24:19.649Z,14.10
2022-08-20T10:25:30.350Z,17.20
2022-08-20T10:26:40.405Z,20.60
2022-08-20T10:27:47.722Z,16.30
2022-08-20T10:28:55.027Z,16.90
2022-08-20T10:30:02.449Z,16.60
2022-08-20T10:31:13.048Z,16.80
2022-08-20T10:32:20.430Z,16.20
2022-08-20T10:33:28.512Z,16.60
2022-08-20T10:34:36.925Z,17.80
2022-08-20T10:35:45.438Z,19.40
2022-08-20T10:36:54.407Z,16.60
2022-08-20T10:38:03.316Z,19.10
2022-08-20T10:39:12.504Z,18.50
2022-08-20T10:40:23.204Z,15.80
2022-08-20T10:41:36.147Z,18.50
2022-08-20T10:42:48.790Z,20.20
2022-08-20T10:43:59.244Z,17.90
2022-08-20T10:45:06.689Z,18.90
2022-08-20T10:46:16.863Z,18.10
2022-08-20T10:47:27.982Z,17.30
2022-08-20T10:48:35.196Z,16.30
2022-08-20T10:49:44.512Z,16.50
2022-08-20T10:50:52.774Z,17.30
2022-08-20T10:52:00.886Z,16.90
2022-08-20T10:53:14.245Z,23.10
2022-08-20T10:54:22.980Z,21.00
2022-08-20T10:55:31.052Z,19.80
2022-08-20T10:56:39.729Z,18.70
2022-08-20T10:57:47.439Z,19.70
2022-08-20T10:58:56.190Z,17.80
2022-08-20T11:00:06.811Z,18.90
2022-08-20T11:01:31.350Z,17.90
2022-08-20T11:02:44.033Z,16.00
2022-08-20T11:03:54.267Z,14.90
2022-08-20T11:05:04.325Z,13.90
2022-08-20T11:06:12.203Z,16.50
2022-08-20T11:07:55.183Z,16.50
2022-08-20T11:08:57.166Z,15.00
2022-08-20T11:10:04.647Z,17.30
2022-08-20T11:11:12.530Z,12.30
2022-08-20T11:12:20.875Z,17.50
2022-08-20T11:13:29.049Z,15.90
2022-08-20T11:14:37.202Z,15.10
2022-08-20T11:15:47.563Z,16.60
2022-08-20T11:16:58.145Z,14.50
2022-08-20T11:18:07.155Z,12.70
2022-08-20T11:19:16.571Z,14.80
2022-08-20T11:21:30.688Z,13.50
2022-08-20T11:22:38.020Z,17.90
2022-08-20T11:23:46.505Z,15.90
2022-08-20T11:24:54.344Z,18.40
2022-08-20T11:26:06.450Z,18.30
2022-08-20T11:27:19.269Z,17.60
2022-08-20T11:28:32.280Z,17.30
2022-08-20T11:29:40.829Z,16.00
2022-08-20T11:30:51.298Z,20.80
2022-08-20T11:31:58.530Z,16.40
2022-08-20T11:33:06.443Z,16.20
2022-08-20T11:34:14.585Z,16.50
2022-08-20T11:35:42.076Z,21.10
2022-08-20T11:36:53.683Z,17.90
2022-08-20T11:38:02.369Z,16.50
2022-08-20T11:39:09.944Z,21.00
2022-08-20T11:40:17.854Z,16.60
2022-08-20T11:41:26.173Z,22.80
2022-08-20T11:42:33.784Z,19.50
2022-08-20T11:43:41.122Z,20.10
2022-08-20T11:44:49.543Z,19.30
2022-08-20T11:45:58.063Z,18.90
2022-08-20T11:47:07.305Z,16.30
2022-08-20T11:48:14.838Z,16.90
2022-08-20T11:49:22.302Z,20.10
2022-08-20T11:50:31.915Z,21.90
2022-08-20T11:51:49.871Z,20.10
2022-08-20T11:53:01.210Z,21.30
2022-08-20T11:54:10.733Z,19.00
2022-08-20T11:55:19.264Z,15.40
2022-08-20T11:56:26.134Z,16.90
2022-08-20T11:57:35.496Z,15.30
2022-08-20T11:58:43.127Z,16.10
2022-08-20T11:59:55.063Z,15.40
2022-08-20T12:01:03.328Z,16.30
2022-08-20T12:02:12.500Z,18.70
2022-08-20T12:03:20.709Z,19.00
2022-08-20T12:04:27.820Z,17.40
2022-08-20T12:05:37.220Z,12.90
2022-08-20T12:06:45.508Z,13.30
2022-08-20T12:07:57.041Z,16.10
2022-08-20T12:09:05.869Z,15.20
2022-08-20T12:10:16.692Z,18.50
2022-08-20T12:11:23.378Z,16.30
2022-08-20T12:12:33.271Z,15.90
2022-08-20T12:13:48.974Z,19.40
2022-08-20T12:14:58.483Z,15.00
2022-08-20T12:16:06.592Z,16.10
2022-08-20T12:17:22.878Z,15.00
2022-08-20T12:18:30.069Z,16.40
2022-08-20T12:19:41.981Z,18.00
2022-08-20T12:20:52.133Z,15.20
2022-08-20T12:21:59.280Z,12.90
2022-08-20T12:23:27.171Z,13.80
2022-08-20T12:24:35.893Z,19.00
2022-08-20T12:25:43.245Z,17.30
2022-08-20T12:26:50.683Z,17.00
2022-08-20T12:28:00.826Z,15.90
2022-08-20T12:29:08.371Z,17.50
2022-08-20T12:30:18.294Z,15.30
2022-08-20T12:31:26.718Z,16.80
2022-08-20T12:32:34.497Z,19.20
2022-08-20T12:33:41.386Z,17.60
2022-08-20T12:34:49.128Z,18.40
2022-08-20T12:35:57.067Z,16.60
2022-08-20T12:37:06.496Z,20.10
2022-08-20T12:38:13.871Z,15.50
2022-08-20T12:39:20.977Z,13.00
2022-08-20T12:40:32.172Z,15.20
2022-08-20T12:41:43.536Z,15.80
2022-08-20T12:42:52.365Z,18.10
2022-08-20T12:44:01.112Z,12.90
2022-08-20T12:45:11.209Z,18.10
2022-08-20T12:47:32.767Z,19.70
2022-08-20T12:48:42.002Z,20.20
2022-08-20T12:49:52.629Z,18.80
2022-08-20T12:51:01.542Z,18.20
2022-08-20T12:52:12.929Z,19.40
2022-08-20T12:53:23.785Z,19.50
2022-08-20T12:54:33.925Z,19.30
2022-08-20T12:55:41.220Z,19.40
2022-08-20T12:56:49.609Z,20.90
2022-08-20T12:58:01.791Z,22.10
2022-08-20T12:59:09.658Z,19.80
2022-08-20T13:00:29.891Z,17.10
2022-08-20T13:01:37.124Z,22.40
2022-08-20T13:02:44.350Z,18.20
2022-08-20T13:03:53.177Z,22.30
2022-08-20T13:05:04.938Z,23.60
2022-08-20T13:06:16.620Z,20.00
2022-08-20T13:07:23.722Z,16.10
2022-08-20T13:08:32.880Z,20.40
2022-08-20T13:09:40.632Z,17.60
2022-08-20T13:10:50.745Z,18.80
2022-08-20T13:12:00.707Z,19.20
2022-08-20T13:13:10.253Z,21.80
2022-08-20T13:14:19.090Z,20.20
2022-08-20T13:15:28.340Z,17.20
2022-08-20T13:16:35.398Z,17.80
2022-08-20T13:17:47.319Z,16.70
2022-08-20T13:18:57.927Z,17.60
2022-08-20T13:20:08.233Z,20.50
2022-08-20T13:21:16.170Z,18.10
2022-08-20T13:22:23.726Z,22.80
2022-08-20T13:23:32.160Z,19.90
2022-08-20T13:24:40.460Z,17.10
2022-08-20T13:25:47.758Z,18.40
2022-08-20T13:26:56.278Z,20.50
2022-08-20T13:28:06.364Z,22.60
2022-08-20T13:29:15.165Z,24.30
2022-08-20T13:30:22.723Z,20.80
2022-08-20T13:31:30.900Z,18.20
2022-08-20T13:32:38.679Z,18.30
2022-08-20T13:33:49.194Z,20.40
2022-08-20T13:34:57.677Z,17.20
2022-08-20T13:36:07.936Z,17.90
2022-08-20T13:37:23.110Z,16.80
2022-08-20T13:38:36.354Z,22.40
2022-08-20T13:39:46.890Z,15.50
2022-08-20T13:40:54.373Z,22.70
2022-08-20T13:42:02.654Z,19.00
2022-08-20T13:43:12.784Z,18.00
2022-08-20T13:44:21.323Z,18.40
2022-08-20T13:45:42.640Z,18.10
2022-08-20T13:46:51.999Z,20.50
2022-08-20T13:48:00.391Z,15.80
2022-08-20T13:49:08.075Z,20.20
2022-08-20T13:50:20.724Z,20.50
2022-08-20T13:51:30.792Z,18.70
2022-08-20T13:52:39.462Z,19.40
2022-08-20T13:53:50.703Z,18.40
2022-08-20T13:54:59.848Z,20.70
2022-08-20T13:56:10.709Z,18.70
2022-08-20T13:57:21.175Z,22.70
2022-08-20T13:58:29.845Z,17.30
2022-08-20T13:59:39.224Z,19.00
2022-08-20T14:00:46.913Z,16.40
2022-08-20T14:01:54.375Z,20.70
2022-08-20T14:03:05.107Z,22.60
2022-08-20T14:04:12.443Z,17.30
2022-08-20T14:05:19.642Z,21.00
2022-08-20T14:06:26.845Z,21.20
2022-08-20T14:07:34.084Z,18.40
2022-08-20T14:08:41.395Z,23.20
2022-08-20T14:09:55.045Z,18.50
2022-08-20T14:11:03.426Z,16.70
2022-08-20T14:12:13.431Z,22.20
2022-08-20T14:13:22.447Z,19.60
2022-08-20T14:14:29.796Z,23.40
2022-08-20T14:15:38.521Z,20.50
2022-08-20T14:16:45.689Z,23.20
2022-08-20T14:17:57.042Z,20.40
2022-08-20T14:19:05.837Z,22.40
2022-08-20T14:20:17.121Z,15.20
2022-08-20T14:21:27.453Z,16.10
2022-08-20T14:22:36.583Z,18.00
2022-08-20T14:23:46.051Z,26.40
2022-08-20T14:24:54.966Z,14.90
2022-08-20T14:26:02.210Z,17.90
2022-08-20T14:27:10.421Z,19.10
2022-08-20T14:28:21.167Z,17.00
2022-08-20T14:29:33.173Z,18.50
2022-08-20T14:30:44.813Z,18.70
2022-08-20T14:31:52.487Z,20.40
2022-08-20T14:33:00.509Z,14.00
2022-08-20T14:34:11.869Z,22.00
2022-08-20T14:35:20.192Z,19.20
2022-08-20T14:36:27.554Z,19.50
2022-08-20T14:37:36.511Z,18.60
2022-08-20T14:38:47.059Z,20.20
2022-08-20T14:39:58.617Z,20.70
2022-08-20T14:41:06.767Z,18.40
2022-08-20T14:42:14.936Z,20.60
2022-08-20T14:43:24.095Z,19.20
2022-08-20T14:44:32.942Z,24.00
2022-08-20T14:45:40.511Z,18.10
2022-08-20T14:46:48.012Z,21.50
2022-08-20T14:48:01.892Z,20.90
2022-08-20T14:49:09.243Z,19.20
2022-08-20T14:50:23.625Z,19.50
2022-08-20T14:51:32.733Z,20.90
2022-08-20T14:52:43.974Z,18.70
2022-08-20T14:53:56.443Z,18.50
2022-08-20T14:55:08.150Z,21.70
2022-08-20T14:56:17.165Z,14.80
2022-08-20T14:58:32.241Z,15.60
2022-08-20T14:59:40.052Z,17.50
2022-08-20T15:00:49.993Z,17.80
2022-08-20T15:01:58.574Z,21.30
2022-08-20T15:03:06.342Z,21.30
2022-08-20T15:04:14.641Z,22.00
2022-08-20T15:05:22.757Z,20.40
2022-08-20T15:06:30.798Z,21.80
2022-08-20T15:07:41.380Z,19.90
2022-08-20T15:08:48.831Z,21.80
2022-08-20T15:09:56.409Z,21.60
2022-08-20T15:11:06.011Z,22.60
2022-08-20T15:12:15.355Z,18.10
2022-08-20T15:13:22.605Z,17.50
2022-08-20T15:14:31.083Z,16.80
2022-08-20T15:15:41.726Z,23.90
2022-08-20T15:16:50.566Z,17.60
2022-08-20T15:18:02.316Z,21.60
2022-08-20T15:19:11.229Z,20.70
2022-08-20T15:20:21.520Z,19.10
2022-08-20T15:21:29.769Z,20.20
2022-08-20T15:22:55.624Z,21.10
2022-08-20T15:24:06.144Z,20.30
2022-08-20T15:25:36.220Z,19.40
2022-08-20T15:26:45.526Z,23.40
2022-08-20T15:28:01.603Z,22.40
2022-08-20T15:29:12.708Z,18.30
2022-08-20T15:30:32.486Z,22.60
2022-08-20T15:31:39.763Z,22.00
2022-08-20T15:32:51.432Z,23.70
2022-08-20T15:34:04.514Z,24.20
2022-08-20T15:35:14.399Z,22.60
2022-08-20T15:36:21.444Z,24.10
2022-08-20T15:37:33.563Z,25.20
2022-08-20T15:38:43.499Z,18.90
2022-08-20T15:39:53.112Z,22.60
2022-08-20T15:41:10.824Z,20.10
2022-08-20T15:42:18.897Z,21.60
2022-08-20T15:43:29.785Z,25.20
2022-08-20T15:44:40.283Z,22.50
2022-08-20T15:45:50.704Z,24.90